createdAt,value
2023-02-22T00:00:01.885Z,37.50
2023-02-22T00:01:01.913Z,38.17
2023-02-22T00:02:01.497Z,39.93
2023-02-22T00:03:02.105Z,39.67
2023-02-22T00:04:03.222Z,49.20
2023-02-22T00:05:01.480Z,52.30
2023-02-22T00:06:04.305Z,45.80
2023-02-22T00:07:01.478Z,44.77
2023-02-22T00:08:01.478Z,47.00
2023-02-22T00:09:01.848Z,43.67
2023-02-22T00:10:02.298Z,41.30
2023-02-22T00:11:04.474Z,36.70
2023-02-22T00:12:01.482Z,36.30
2023-02-22T00:13:01.477Z,40.57
2023-02-22T00:14:01.826Z,38.77
2023-02-22T00:15:01.477Z,37.03
2023-02-22T00:16:01.997Z,39.43
2023-02-22T00:17:01.474Z,38.90
2023-02-22T00:18:03.553Z,39.30
2023-02-22T00:19:01.485Z,38.93
2023-02-22T00:20:02.805Z,37.53
2023-02-22T00:21:02.140Z,37.73
2023-02-22T00:22:01.483Z,38.33
2023-02-22T00:23:01.494Z,37.73
2023-02-22T00:24:02.121Z,37.00
2023-02-22T00:25:01.479Z,38.53
2023-02-22T00:26:01.485Z,35.80
2023-02-22T00:27:01.590Z,37.73
2023-02-22T00:28:02.643Z,34.47
2023-02-22T00:29:01.492Z,35.57
2023-02-22T00:30:02.280Z,33.93
2023-02-22T00:31:02.160Z,35.23
2023-02-22T00:32:02.182Z,36.30
2023-02-22T00:33:01.873Z,36.27
2023-02-22T00:34:01.824Z,30.20
2023-02-22T00:35:01.807Z,29.40
2023-02-22T00:36:01.956Z,27.83
2023-02-22T00:37:01.829Z,29.57
2023-02-22T00:38:02.929Z,29.43
2023-02-22T00:39:01.874Z,31.97
2023-02-22T00:40:01.522Z,30.03
2023-02-22T00:41:01.835Z,31.53
2023-02-22T00:42:02.003Z,37.77
2023-02-22T00:43:04.617Z,35.20
2023-02-22T00:44:01.917Z,35.20
2023-02-22T00:45:01.970Z,34.50
2023-02-22T00:46:02.846Z,34.83
2023-02-22T00:47:01.482Z,34.23
2023-02-22T00:48:03.107Z,29.03
2023-02-22T00:49:01.820Z,31.93
2023-02-22T00:50:01.473Z,32.50
2023-02-22T00:51:01.944Z,32.43
2023-02-22T00:52:01.510Z,27.93
2023-02-22T00:53:03.478Z,30.13
2023-02-22T00:54:02.071Z,30.53
2023-02-22T00:55:04.228Z,31.37
2023-02-22T00:56:01.477Z,33.40
2023-02-22T00:57:02.744Z,31.43
2023-02-22T00:58:01.730Z,28.70
2023-02-22T00:59:01.897Z,27.10
2023-02-22T01:00:03.300Z,25.63
2023-02-22T01:01:01.522Z,25.90
2023-02-22T01:02:01.832Z,27.57
2023-02-22T01:03:01.691Z,28.30
2023-02-22T01:04:01.824Z,30.30
2023-02-22T01:05:01.744Z,31.57
2023-02-22T01:06:01.500Z,25.80
2023-02-22T01:07:01.839Z,27.83
2023-02-22T01:08:03.430Z,27.63
2023-02-22T01:09:02.861Z,29.00
2023-02-22T01:10:02.159Z,30.70
2023-02-22T01:11:01.831Z,24.63
2023-02-22T01:12:01.812Z,33.93
2023-02-22T01:13:02.399Z,25.90
2023-02-22T01:14:01.969Z,28.10
2023-02-22T01:15:01.904Z,23.10
2023-02-22T01:16:01.811Z,30.30
2023-02-22T01:17:01.474Z,33.37
2023-02-22T01:18:02.104Z,29.33
2023-02-22T01:19:01.921Z,26.90
2023-02-22T01:20:01.950Z,30.93
2023-02-22T01:21:02.731Z,27.37
2023-02-22T01:22:01.474Z,25.60
2023-02-22T01:23:03.830Z,23.47
2023-02-22T01:24:01.810Z,24.53
2023-02-22T01:25:01.474Z,31.33
2023-02-22T01:26:01.904Z,27.47
2023-02-22T01:27:01.740Z,25.77
2023-02-22T01:28:03.606Z,27.00
2023-02-22T01:29:01.472Z,22.20
2023-02-22T01:30:03.435Z,24.50
2023-02-22T01:31:02.126Z,29.80
2023-02-22T01:32:03.005Z,30.87
2023-02-22T01:33:03.666Z,24.27
2023-02-22T01:34:01.483Z,26.67
2023-02-22T01:35:01.897Z,26.03
2023-02-22T01:36:01.819Z,28.67
2023-02-22T01:37:01.482Z,29.80
2023-02-22T01:38:02.147Z,30.03
2023-02-22T01:39:01.849Z,31.00
2023-02-22T01:40:03.163Z,29.80
2023-02-22T01:41:03.485Z,27.13
2023-02-22T01:42:01.478Z,26.33
2023-02-22T01:43:05.126Z,29.00
2023-02-22T01:44:19.839Z,29.67
2023-02-22T01:45:20.879Z,23.03
2023-02-22T01:46:03.110Z,23.73
2023-02-22T01:47:03.293Z,30.23
2023-02-22T01:48:05.275Z,25.23
2023-02-22T01:49:04.910Z,29.87
2023-02-22T01:50:01.650Z,27.60
2023-02-22T01:51:06.063Z,32.37
2023-02-22T01:52:05.778Z,26.50
2023-02-22T01:53:03.161Z,28.73
2023-02-22T01:54:08.962Z,24.57
2023-02-22T01:55:01.896Z,29.53
2023-02-22T01:56:02.971Z,22.90
2023-02-22T01:57:07.211Z,28.07
2023-02-22T01:58:02.762Z,26.13
2023-02-22T01:59:05.291Z,25.33
2023-02-22T02:00:07.748Z,25.20
2023-02-22T02:01:02.176Z,26.33
2023-02-22T02:02:02.100Z,27.37
2023-02-22T02:03:07.354Z,25.33
2023-02-22T02:04:08.134Z,23.57
2023-02-22T02:05:02.221Z,27.67
2023-02-22T02:06:05.685Z,24.27
2023-02-22T02:07:06.867Z,24.40
2023-02-22T02:08:10.532Z,25.67
2023-02-22T02:09:08.174Z,23.63
2023-02-22T02:10:04.311Z,23.97
2023-02-22T02:11:03.969Z,23.20
2023-02-22T02:12:01.888Z,22.57
2023-02-22T02:13:02.101Z,23.80
2023-02-22T02:14:01.859Z,23.83
2023-02-22T02:15:20.470Z,24.10
2023-02-22T02:16:01.861Z,25.03
2023-02-22T02:17:01.880Z,25.80
2023-02-22T02:18:04.497Z,23.30
2023-02-22T02:19:03.215Z,26.07
2023-02-22T02:20:08.405Z,22.23
2023-02-22T02:21:20.871Z,25.30
2023-02-22T02:22:11.965Z,24.07
2023-02-22T02:23:17.729Z,23.83
2023-02-22T02:24:20.892Z,23.93
2023-02-22T02:25:20.870Z,24.37
2023-02-22T02:26:20.879Z,25.00
2023-02-22T02:27:11.629Z,25.07
2023-02-22T02:28:20.893Z,23.23
2023-02-22T02:29:20.910Z,20.87
2023-02-22T02:30:20.935Z,23.07
2023-02-22T02:31:20.915Z,23.57
2023-02-22T02:32:21.013Z,21.93
2023-02-22T02:33:09.672Z,24.70
2023-02-22T02:34:07.774Z,21.53
2023-02-22T02:35:11.568Z,22.83
2023-02-22T02:36:07.137Z,27.30
2023-02-22T02:37:10.344Z,26.73
2023-02-22T02:38:09.955Z,24.23
2023-02-22T02:39:10.407Z,24.97
2023-02-22T02:40:11.580Z,25.67
2023-02-22T02:41:12.737Z,25.23
2023-02-22T02:42:05.610Z,24.30
2023-02-22T02:43:10.275Z,24.77
2023-02-22T02:44:08.864Z,23.97
2023-02-22T02:45:07.481Z,25.87
2023-02-22T02:46:10.689Z,26.60
2023-02-22T02:47:04.364Z,23.07
2023-02-22T02:48:04.464Z,24.23
2023-02-22T02:49:07.233Z,23.03
2023-02-22T02:50:09.090Z,24.33
2023-02-22T02:51:06.170Z,22.63
2023-02-22T02:52:03.064Z,24.97
2023-02-22T02:53:07.255Z,23.43
2023-02-22T02:54:03.396Z,20.60
2023-02-22T02:55:04.767Z,24.83
2023-02-22T02:56:02.732Z,22.20
2023-02-22T02:57:02.669Z,18.07
2023-02-22T02:58:01.670Z,16.83
2023-02-22T02:59:01.853Z,14.90
2023-02-22T03:00:01.477Z,15.17
2023-02-22T03:01:03.207Z,22.60
2023-02-22T03:02:14.966Z,21.63
2023-02-22T03:03:16.529Z,19.60
2023-02-22T03:04:20.357Z,19.90
2023-02-22T03:05:13.688Z,23.00
2023-02-22T03:06:18.477Z,17.30
2023-02-22T03:07:16.065Z,19.90
2023-02-22T03:08:10.857Z,18.73
2023-02-22T03:09:12.161Z,18.23
2023-02-22T03:10:16.133Z,21.00
2023-02-22T03:11:07.081Z,18.23
2023-02-22T03:12:14.486Z,18.87
2023-02-22T03:13:13.597Z,18.77
2023-02-22T03:14:10.560Z,17.00
2023-02-22T03:15:12.487Z,20.83
2023-02-22T03:16:14.685Z,17.43
2023-02-22T03:17:08.794Z,14.20
2023-02-22T03:18:05.016Z,13.57
2023-02-22T03:19:11.161Z,18.67
2023-02-22T03:20:09.140Z,17.73
2023-02-22T03:21:16.562Z,18.83
2023-02-22T03:22:09.795Z,20.40
2023-02-22T03:23:06.459Z,17.17
2023-02-22T03:24:08.602Z,16.37
2023-02-22T03:25:04.926Z,21.40
2023-02-22T03:26:07.154Z,17.20
2023-02-22T03:27:06.556Z,19.57
2023-02-22T03:28:06.315Z,19.43
2023-02-22T03:29:04.678Z,19.80
2023-02-22T03:30:06.779Z,19.27
2023-02-22T03:31:06.416Z,20.23
2023-02-22T03:32:06.375Z,20.10
2023-02-22T03:33:06.170Z,21.27
2023-02-22T03:34:07.977Z,22.07
2023-02-22T03:35:07.333Z,23.23
2023-02-22T03:36:08.238Z,21.10
2023-02-22T03:37:07.415Z,19.93
2023-02-22T03:38:06.586Z,20.13
2023-02-22T03:39:03.183Z,19.10
2023-02-22T03:40:06.216Z,20.03
2023-02-22T03:41:03.705Z,23.37
2023-02-22T03:42:07.977Z,21.67
2023-02-22T03:43:06.146Z,21.50
2023-02-22T03:44:04.809Z,19.27
2023-02-22T03:45:04.347Z,22.97
2023-02-22T03:46:02.693Z,19.10
2023-02-22T03:47:08.136Z,23.60
2023-02-22T03:48:06.052Z,21.83
2023-02-22T03:49:09.260Z,19.13
2023-02-22T03:50:08.768Z,23.90
2023-02-22T03:51:02.889Z,21.23
2023-02-22T03:52:03.526Z,22.43
2023-02-22T03:53:02.852Z,22.00
2023-02-22T03:54:02.761Z,23.37
2023-02-22T03:55:04.051Z,22.43
2023-02-22T03:56:04.297Z,21.90
2023-02-22T03:57:09.619Z,19.87
2023-02-22T03:58:05.989Z,20.50
2023-02-22T03:59:03.612Z,22.57
2023-02-22T04:00:04.044Z,25.47
2023-02-22T04:01:03.026Z,22.07
2023-02-22T04:02:02.005Z,24.17
2023-02-22T04:03:02.606Z,23.57
2023-02-22T04:04:02.076Z,22.27
2023-02-22T04:05:02.243Z,21.03
2023-02-22T04:06:01.500Z,20.93
2023-02-22T04:07:02.536Z,22.20
2023-02-22T04:08:01.814Z,20.30
2023-02-22T04:09:01.548Z,21.57
2023-02-22T04:10:01.967Z,20.87
2023-02-22T04:11:01.901Z,19.87
2023-02-22T04:12:01.822Z,20.93
2023-02-22T04:13:01.479Z,19.53
2023-02-22T04:14:01.471Z,21.63
2023-02-22T04:15:02.499Z,25.57
2023-02-22T04:16:01.576Z,18.60
2023-02-22T04:17:01.837Z,21.20
2023-02-22T04:18:01.789Z,21.57
2023-02-22T04:19:01.474Z,20.53
2023-02-22T04:20:01.344Z,17.57
2023-02-22T04:21:01.750Z,21.97
2023-02-22T04:22:01.447Z,18.73
2023-02-22T04:23:01.564Z,19.60
2023-02-22T04:24:01.362Z,19.87
2023-02-22T04:25:01.320Z,17.93
2023-02-22T04:26:01.691Z,18.80
2023-02-22T04:27:01.708Z,18.70
2023-02-22T04:28:01.368Z,18.07
2023-02-22T04:30:01.652Z,18.47
2023-02-22T04:31:01.298Z,19.90
2023-02-22T04:32:01.647Z,20.23
2023-02-22T04:33:01.190Z,19.20
2023-02-22T04:34:01.597Z,19.03
2023-02-22T04:35:01.613Z,17.80
2023-02-22T04:36:01.172Z,17.93
2023-02-22T04:37:01.100Z,19.77
2023-02-22T04:38:01.464Z,19.83
2023-02-22T04:39:01.426Z,18.47
2023-02-22T04:40:01.177Z,18.13
2023-02-22T04:41:01.141Z,18.17
2023-02-22T04:42:01.534Z,18.00
2023-02-22T04:43:01.589Z,16.00
2023-02-22T04:44:01.110Z,16.83
2023-02-22T04:45:02.171Z,20.57
2023-02-22T04:46:01.075Z,16.13
2023-02-22T04:47:01.077Z,18.13
2023-02-22T04:48:01.432Z,15.63
2023-02-22T04:49:01.463Z,13.73
2023-02-22T04:50:01.210Z,14.20
2023-02-22T04:51:01.090Z,14.67
2023-02-22T04:52:01.433Z,15.37
2023-02-22T04:53:02.178Z,16.40
2023-02-22T04:54:01.561Z,13.83
2023-02-22T04:55:01.456Z,15.27
2023-02-22T04:56:01.961Z,12.03
2023-02-22T04:57:01.076Z,14.93
2023-02-22T04:58:01.524Z,12.43
2023-02-22T04:59:01.066Z,13.30
2023-02-22T05:00:01.472Z,11.57
2023-02-22T05:01:01.130Z,12.83
2023-02-22T05:02:02.061Z,13.07
2023-02-22T05:03:01.353Z,11.50
2023-02-22T05:04:01.470Z,13.13
2023-02-22T05:05:01.113Z,9.80
2023-02-22T05:06:01.091Z,10.03
2023-02-22T05:07:01.192Z,13.57
2023-02-22T05:08:01.413Z,13.33
2023-02-22T05:09:01.138Z,11.27
2023-02-22T05:10:01.435Z,13.07
2023-02-22T05:11:01.443Z,9.70
2023-02-22T05:12:01.450Z,10.73
2023-02-22T05:13:02.688Z,11.03
2023-02-22T05:14:01.422Z,9.90
2023-02-22T05:15:01.448Z,8.97
2023-02-22T05:16:01.625Z,11.70
2023-02-22T05:17:02.136Z,11.73
2023-02-22T05:18:01.665Z,9.33
2023-02-22T05:19:01.140Z,12.50
2023-02-22T05:20:02.078Z,11.63
2023-02-22T05:21:01.088Z,9.53
2023-02-22T05:22:01.402Z,10.10
2023-02-22T05:23:02.687Z,12.13
2023-02-22T05:24:01.544Z,7.80
2023-02-22T05:25:01.621Z,8.77
2023-02-22T05:26:01.424Z,10.83
2023-02-22T05:27:01.533Z,10.73
2023-02-22T05:28:03.872Z,7.83
2023-02-22T05:29:01.209Z,9.40
2023-02-22T05:30:01.488Z,11.30
2023-02-22T05:31:02.009Z,7.37
2023-02-22T05:32:01.197Z,9.23
2023-02-22T05:33:01.818Z,8.63
2023-02-22T05:34:01.112Z,7.60
2023-02-22T05:35:01.118Z,8.27
2023-02-22T05:36:01.321Z,9.83
2023-02-22T05:37:01.421Z,7.80
2023-02-22T05:38:01.418Z,7.23
2023-02-22T05:39:01.446Z,7.03
2023-02-22T05:40:01.338Z,6.27
2023-02-22T05:41:01.429Z,8.00
2023-02-22T05:42:01.425Z,8.50
2023-02-22T05:43:01.515Z,8.77
2023-02-22T05:44:01.446Z,6.50
2023-02-22T05:45:01.453Z,7.40
2023-02-22T05:46:01.434Z,7.40
2023-02-22T05:47:01.437Z,8.37
2023-02-22T05:48:01.503Z,6.53
2023-02-22T05:49:01.161Z,6.50
2023-02-22T05:50:01.079Z,7.87
2023-02-22T05:51:01.876Z,7.63
2023-02-22T05:52:01.430Z,5.50
2023-02-22T05:53:01.607Z,7.77
2023-02-22T05:54:01.106Z,7.60
2023-02-22T05:55:01.427Z,7.50
2023-02-22T05:56:01.905Z,6.27
2023-02-22T05:57:01.472Z,7.27
2023-02-22T05:58:01.430Z,7.13
2023-02-22T05:59:01.502Z,7.17
2023-02-22T06:00:01.685Z,7.40
2023-02-22T06:01:03.195Z,7.17
2023-02-22T06:02:01.618Z,7.73
2023-02-22T06:03:03.821Z,7.33
2023-02-22T06:04:01.076Z,7.77
2023-02-22T06:05:01.077Z,8.00
2023-02-22T06:06:01.084Z,5.80
2023-02-22T06:07:01.408Z,5.87
2023-02-22T06:08:03.260Z,7.90
2023-02-22T06:09:01.100Z,6.57
2023-02-22T06:10:01.472Z,7.77
2023-02-22T06:11:01.077Z,5.37
2023-02-22T06:12:01.425Z,7.00
2023-02-22T06:13:03.107Z,6.53
2023-02-22T06:14:01.422Z,7.37
2023-02-22T06:15:01.544Z,7.33
2023-02-22T06:16:01.858Z,6.57
2023-02-22T06:17:02.017Z,8.13
2023-02-22T06:18:01.828Z,6.10
2023-02-22T06:19:01.487Z,6.73
2023-02-22T06:20:01.381Z,7.40
2023-02-22T06:21:01.181Z,8.10
2023-02-22T06:22:01.068Z,5.80
2023-02-22T06:23:01.086Z,7.20
2023-02-22T06:24:01.572Z,7.13
2023-02-22T06:25:02.012Z,6.20
2023-02-22T06:26:01.440Z,6.93
2023-02-22T06:27:01.942Z,5.17
2023-02-22T06:28:01.983Z,7.07
2023-02-22T06:29:01.067Z,6.67
2023-02-22T06:30:01.571Z,6.47
2023-02-22T06:31:01.076Z,6.30
2023-02-22T06:32:01.173Z,5.37
2023-02-22T06:33:01.410Z,5.30
2023-02-22T06:34:01.416Z,6.43
2023-02-22T06:35:01.681Z,7.20
2023-02-22T06:36:01.431Z,6.20
2023-02-22T06:37:01.079Z,6.67
2023-02-22T06:38:01.434Z,6.07
2023-02-22T06:39:01.066Z,6.87
2023-02-22T06:40:05.527Z,5.23
2023-02-22T06:41:01.074Z,7.83
2023-02-22T06:42:01.499Z,6.93
2023-02-22T06:43:01.100Z,6.30
2023-02-22T06:44:01.080Z,5.50
2023-02-22T06:45:01.224Z,5.50
2023-02-22T06:46:01.743Z,8.57
2023-02-22T06:47:01.115Z,6.23
2023-02-22T06:48:01.457Z,4.80
2023-02-22T06:49:01.070Z,6.53
2023-02-22T06:50:01.087Z,5.17
2023-02-22T06:51:01.064Z,6.40
2023-02-22T06:52:03.957Z,7.53
2023-02-22T06:53:01.078Z,7.00
2023-02-22T06:54:01.498Z,5.93
2023-02-22T06:55:01.470Z,7.20
2023-02-22T06:56:01.515Z,5.83
2023-02-22T06:57:01.602Z,5.10
2023-02-22T06:58:02.691Z,5.37
2023-02-22T06:59:02.840Z,6.10
2023-02-22T07:00:01.130Z,6.00
2023-02-22T07:01:01.485Z,5.13
2023-02-22T07:02:01.078Z,6.67
2023-02-22T07:03:04.051Z,6.00
2023-02-22T07:04:01.144Z,6.10
2023-02-22T07:05:01.086Z,6.37
2023-02-22T07:06:01.812Z,5.77
2023-02-22T07:07:01.416Z,6.90
2023-02-22T07:08:03.758Z,5.63
2023-02-22T07:09:01.600Z,8.57
2023-02-22T07:10:01.098Z,6.13
2023-02-22T07:11:01.707Z,6.47
2023-02-22T07:12:01.498Z,5.03
2023-02-22T07:13:01.737Z,6.60
2023-02-22T07:14:01.073Z,7.10
2023-02-22T07:15:01.746Z,6.53
2023-02-22T07:16:01.313Z,5.43
2023-02-22T07:17:01.108Z,6.53
2023-02-22T07:18:01.160Z,6.37
2023-02-22T07:19:02.064Z,6.17
2023-02-22T07:20:01.439Z,6.63
2023-02-22T07:21:01.420Z,7.87
2023-02-22T07:22:01.097Z,5.40
2023-02-22T07:23:01.178Z,6.87
2023-02-22T07:24:02.880Z,6.20
2023-02-22T07:25:01.066Z,6.20
2023-02-22T07:26:02.379Z,6.80
2023-02-22T07:27:01.741Z,6.20
2023-02-22T07:28:01.425Z,6.93
2023-02-22T07:29:01.130Z,5.50
2023-02-22T07:30:01.797Z,8.33
2023-02-22T07:31:01.099Z,7.93
2023-02-22T07:32:01.302Z,6.20
2023-02-22T07:33:03.807Z,6.97
2023-02-22T07:34:01.073Z,5.37
2023-02-22T07:35:01.436Z,7.07
2023-02-22T07:36:01.141Z,6.13
2023-02-22T07:37:01.074Z,6.00
2023-02-22T07:38:01.635Z,5.90
2023-02-22T07:39:01.142Z,6.83
2023-02-22T07:40:01.422Z,8.23
2023-02-22T07:41:01.198Z,6.73
2023-02-22T07:42:01.095Z,6.73
2023-02-22T07:43:05.285Z,6.00
2023-02-22T07:44:01.419Z,7.97
2023-02-22T07:45:01.097Z,8.17
2023-02-22T07:46:01.173Z,5.97
2023-02-22T07:47:01.073Z,7.00
2023-02-22T07:48:03.624Z,8.00
2023-02-22T07:49:01.103Z,7.97
2023-02-22T07:50:01.067Z,6.03
2023-02-22T07:51:01.470Z,6.77
2023-02-22T07:52:01.686Z,8.47
2023-02-22T07:53:05.019Z,7.13
2023-02-22T07:54:01.419Z,6.53
2023-02-22T07:55:01.432Z,7.47
2023-02-22T07:56:03.782Z,6.47
2023-02-22T07:57:01.439Z,7.20
2023-02-22T07:58:04.639Z,7.73
2023-02-22T07:59:01.544Z,8.10
2023-02-22T08:00:01.428Z,6.27
2023-02-22T08:01:01.139Z,7.07
2023-02-22T08:02:01.073Z,8.17
2023-02-22T08:03:04.082Z,6.77
2023-02-22T08:04:01.490Z,5.53
2023-02-22T08:05:01.447Z,7.50
2023-02-22T08:06:03.101Z,6.87
2023-02-22T08:07:01.079Z,7.00
2023-02-22T08:08:01.734Z,7.20
2023-02-22T08:09:01.092Z,7.27
2023-02-22T08:10:01.151Z,7.47
2023-02-22T08:11:01.601Z,6.30
2023-02-22T08:12:01.080Z,7.10
2023-02-22T08:13:02.670Z,5.20
2023-02-22T08:14:01.354Z,7.17
2023-02-22T08:15:02.565Z,5.40
2023-02-22T08:16:01.458Z,6.00
2023-02-22T08:17:01.518Z,7.13
2023-02-22T08:18:02.937Z,5.53
2023-02-22T08:19:01.437Z,5.73
2023-02-22T08:20:01.433Z,7.13
2023-02-22T08:21:01.419Z,6.87
2023-02-22T08:22:01.432Z,8.23
2023-02-22T08:23:01.517Z,6.47
2023-02-22T08:24:01.436Z,7.83
2023-02-22T08:25:01.715Z,7.67
2023-02-22T08:26:05.576Z,6.57
2023-02-22T08:27:01.417Z,10.23
2023-02-22T08:28:04.659Z,6.60
2023-02-22T08:29:01.069Z,7.87
2023-02-22T08:30:01.573Z,6.50
2023-02-22T08:31:01.505Z,5.70
2023-02-22T08:32:01.469Z,6.50
2023-02-22T08:33:03.130Z,7.73
2023-02-22T08:34:01.144Z,8.53
2023-02-22T08:35:02.752Z,6.53
2023-02-22T08:36:01.783Z,6.23
2023-02-22T08:37:01.086Z,5.57
2023-02-22T08:38:03.445Z,8.87
2023-02-22T08:39:01.429Z,9.70
2023-02-22T08:40:01.430Z,7.10
2023-02-22T08:41:01.101Z,6.27
2023-02-22T08:42:01.120Z,7.87
2023-02-22T08:43:01.931Z,7.57
2023-02-22T08:44:01.459Z,5.20
2023-02-22T08:45:01.086Z,7.37
2023-02-22T08:46:01.143Z,5.33
2023-02-22T08:47:02.092Z,6.93
2023-02-22T08:48:01.084Z,7.77
2023-02-22T08:49:01.463Z,6.23
2023-02-22T08:50:01.529Z,8.33
2023-02-22T08:51:01.586Z,7.03
2023-02-22T08:52:01.486Z,9.03
2023-02-22T08:53:03.702Z,6.53
2023-02-22T08:54:01.135Z,7.43
2023-02-22T08:55:01.107Z,8.07
2023-02-22T08:56:01.407Z,7.37
2023-02-22T08:57:01.407Z,13.07
2023-02-22T08:58:02.617Z,7.50
2023-02-22T08:59:01.402Z,10.03
2023-02-22T09:00:01.625Z,7.23
2023-02-22T09:01:01.346Z,7.53
2023-02-22T09:02:01.376Z,9.40
2023-02-22T09:03:02.605Z,7.50
2023-02-22T09:04:01.772Z,7.67
2023-02-22T09:05:01.063Z,5.67
2023-02-22T09:06:01.493Z,6.80
2023-02-22T09:07:01.101Z,9.60
2023-02-22T09:08:02.149Z,6.63
2023-02-22T09:09:01.617Z,8.67
2023-02-22T09:10:01.492Z,7.33
2023-02-22T09:11:01.076Z,6.13
2023-02-22T09:12:01.575Z,9.80
2023-02-22T09:13:01.587Z,7.23
2023-02-22T09:14:01.143Z,5.70
2023-02-22T09:15:01.077Z,7.67
2023-02-22T09:16:01.487Z,10.63
2023-02-22T09:17:01.626Z,10.10
2023-02-22T09:18:02.168Z,10.47
2023-02-22T09:19:01.068Z,8.53
2023-02-22T09:20:01.518Z,8.17
2023-02-22T09:21:01.090Z,7.23
2023-02-22T09:22:01.426Z,9.13
2023-02-22T09:23:02.484Z,6.20
2023-02-22T09:24:01.409Z,7.53
2023-02-22T09:25:11.414Z,8.37
2023-02-22T09:26:01.072Z,10.10
2023-02-22T09:27:01.186Z,6.33
2023-02-22T09:28:01.975Z,6.70
2023-02-22T09:29:01.081Z,8.90
2023-02-22T09:30:01.482Z,7.97
2023-02-22T09:31:01.727Z,9.00
2023-02-22T09:32:01.589Z,7.40
2023-02-22T09:33:04.399Z,6.67
2023-02-22T09:34:03.290Z,8.53
2023-02-22T09:35:01.158Z,9.37
2023-02-22T09:36:01.082Z,6.17
2023-02-22T09:37:01.403Z,7.50
2023-02-22T09:38:04.002Z,9.03
2023-02-22T09:39:01.069Z,6.40
2023-02-22T09:40:01.245Z,8.07
2023-02-22T09:41:07.906Z,9.63
2023-02-22T09:42:08.235Z,9.73
2023-02-22T09:43:12.793Z,7.30
2023-02-22T09:44:15.736Z,7.57
2023-02-22T09:45:10.203Z,8.60
2023-02-22T09:46:12.260Z,7.83
2023-02-22T09:47:03.734Z,9.30
2023-02-22T09:48:20.937Z,8.13
2023-02-22T09:49:06.324Z,8.37
2023-02-22T09:50:05.373Z,10.53
2023-02-22T09:51:12.733Z,10.43
2023-02-22T09:52:07.220Z,7.50
2023-02-22T09:53:04.776Z,8.07
2023-02-22T09:54:03.812Z,7.43
2023-02-22T09:55:08.350Z,9.37
2023-02-22T09:56:06.173Z,8.33
2023-02-22T09:57:05.153Z,7.60
2023-02-22T09:58:09.660Z,7.70
2023-02-22T09:59:05.993Z,9.10
2023-02-22T10:00:06.412Z,9.97
2023-02-22T10:01:17.125Z,8.87
2023-02-22T10:02:14.362Z,8.20
2023-02-22T10:03:16.627Z,8.73
2023-02-22T10:04:09.999Z,6.00
2023-02-22T10:05:08.158Z,9.00
2023-02-22T10:06:08.251Z,7.87
2023-02-22T10:07:11.268Z,7.20
2023-02-22T10:08:03.232Z,5.77
2023-02-22T10:09:03.184Z,7.67
2023-02-22T10:10:01.165Z,6.90
2023-02-22T10:11:11.843Z,9.43
2023-02-22T10:12:08.042Z,10.27
2023-02-22T10:13:14.739Z,6.60
2023-02-22T10:14:09.750Z,6.93
2023-02-22T10:15:20.485Z,5.80
2023-02-22T10:16:05.608Z,6.37
2023-02-22T10:17:07.639Z,7.07
2023-02-22T10:18:16.509Z,6.70
2023-02-22T10:19:15.346Z,7.83
2023-02-22T10:20:15.528Z,9.40
2023-02-22T10:21:11.986Z,8.67
2023-02-22T10:22:17.042Z,9.50
2023-02-22T10:23:10.113Z,8.73
2023-02-22T10:24:12.497Z,7.27
2023-02-22T10:25:05.039Z,8.17
2023-02-22T10:26:14.546Z,8.00
2023-02-22T10:27:02.572Z,8.27
2023-02-22T10:28:09.003Z,7.27
2023-02-22T10:29:09.084Z,5.93
2023-02-22T10:30:15.672Z,8.23
2023-02-22T10:31:07.345Z,8.13
2023-02-22T10:32:04.515Z,7.33
2023-02-22T10:33:09.713Z,7.23
2023-02-22T10:34:04.106Z,7.80
2023-02-22T10:35:03.626Z,10.07
2023-02-22T10:36:02.531Z,9.67
2023-02-22T10:37:16.148Z,9.90
2023-02-22T10:38:11.317Z,8.17
2023-02-22T10:39:15.591Z,8.37
2023-02-22T10:40:11.374Z,8.47
2023-02-22T10:41:12.736Z,8.33
2023-02-22T10:42:04.724Z,8.00
2023-02-22T10:43:03.498Z,7.37
2023-02-22T10:44:01.973Z,7.50
2023-02-22T10:45:01.457Z,6.10
2023-02-22T10:46:06.187Z,8.13
2023-02-22T10:47:04.289Z,8.93
2023-02-22T10:48:04.812Z,8.03
2023-02-22T10:49:05.277Z,6.80
2023-02-22T10:50:01.863Z,7.47
2023-02-22T10:51:04.630Z,8.50
2023-02-22T10:52:03.773Z,9.30
2023-02-22T10:53:01.440Z,9.17
2023-02-22T10:54:20.750Z,6.20
2023-02-22T10:55:14.461Z,8.33
2023-02-22T10:56:15.818Z,9.53
2023-02-22T10:57:01.690Z,8.90
2023-02-22T10:58:05.443Z,8.47
2023-02-22T10:59:03.479Z,10.90
2023-02-22T11:00:15.391Z,9.23
2023-02-22T11:01:19.777Z,9.30
2023-02-22T11:02:16.959Z,10.10
2023-02-22T11:03:05.023Z,9.80
2023-02-22T11:04:09.672Z,8.47
2023-02-22T11:05:03.924Z,9.07
2023-02-22T11:06:18.230Z,9.60
2023-02-22T11:07:17.551Z,9.20
2023-02-22T11:08:20.485Z,8.10
2023-02-22T11:09:08.293Z,10.23
2023-02-22T11:10:04.578Z,11.37
2023-02-22T11:11:12.227Z,8.17
2023-02-22T11:12:10.654Z,10.00
2023-02-22T11:13:18.541Z,10.80
2023-02-22T11:14:01.872Z,13.47
2023-02-22T11:15:20.480Z,11.27
2023-02-22T11:16:17.766Z,8.07
2023-02-22T11:17:06.904Z,7.87
2023-02-22T11:18:01.512Z,8.63
2023-02-22T11:19:07.236Z,8.70
2023-02-22T11:20:01.180Z,10.33
2023-02-22T11:21:05.036Z,9.20
2023-02-22T11:22:11.197Z,8.13
2023-02-22T11:23:04.501Z,8.60
2023-02-22T11:24:05.156Z,8.60
2023-02-22T11:25:03.527Z,8.40
2023-02-22T11:26:06.293Z,9.97
2023-02-22T11:27:04.200Z,9.40
2023-02-22T11:28:08.760Z,9.87
2023-02-22T11:29:11.789Z,9.13
2023-02-22T11:30:20.529Z,9.77
2023-02-22T11:31:13.072Z,7.53
2023-02-22T11:32:10.845Z,10.67
2023-02-22T11:33:14.921Z,8.83
2023-02-22T11:34:03.181Z,8.30
2023-02-22T11:35:20.858Z,11.07
2023-02-22T11:36:03.172Z,9.60
2023-02-22T11:37:20.477Z,7.70
2023-02-22T11:38:15.809Z,11.90
2023-02-22T11:39:01.112Z,10.40
2023-02-22T11:40:07.908Z,9.67
2023-02-22T11:41:10.556Z,9.73
2023-02-22T11:42:19.816Z,12.03
2023-02-22T11:43:07.856Z,7.83
2023-02-22T11:44:12.727Z,9.67
2023-02-22T11:45:11.971Z,10.67
2023-02-22T11:46:04.272Z,9.37
2023-02-22T11:47:02.516Z,7.50
2023-02-22T11:48:05.175Z,8.83
2023-02-22T11:49:05.927Z,8.73
2023-02-22T11:50:01.554Z,7.90
2023-02-22T11:51:16.427Z,9.00
2023-02-22T11:52:14.704Z,8.70
2023-02-22T11:53:16.938Z,9.13
2023-02-22T11:54:20.471Z,10.67
2023-02-22T11:55:15.152Z,9.57
2023-02-22T11:56:16.101Z,10.20
2023-02-22T11:57:12.479Z,9.37
2023-02-22T11:58:15.098Z,9.77
2023-02-22T11:59:12.481Z,9.00
2023-02-22T12:00:12.774Z,9.80
2023-02-22T12:01:07.978Z,9.33
2023-02-22T12:02:15.827Z,10.77
2023-02-22T12:03:20.494Z,10.03
2023-02-22T12:04:20.520Z,10.87
2023-02-22T12:05:10.766Z,12.53
2023-02-22T12:06:16.456Z,10.63
2023-02-22T12:07:12.949Z,10.40
2023-02-22T12:08:19.230Z,12.30
2023-02-22T12:09:12.868Z,9.77
2023-02-22T12:10:14.319Z,11.30
2023-02-22T12:11:11.028Z,11.67
2023-02-22T12:12:11.777Z,10.93
2023-02-22T12:13:12.510Z,9.30
2023-02-22T12:14:12.054Z,11.80
2023-02-22T12:15:09.941Z,9.10
2023-02-22T12:16:12.154Z,9.73
2023-02-22T12:17:13.167Z,10.53
2023-02-22T12:18:12.284Z,10.33
2023-02-22T12:19:10.651Z,10.20
2023-02-22T12:20:05.552Z,10.03
2023-02-22T12:21:06.663Z,10.67
2023-02-22T12:22:07.594Z,12.00
2023-02-22T12:23:12.061Z,11.83
2023-02-22T12:24:06.023Z,12.23
2023-02-22T12:25:12.406Z,10.90
2023-02-22T12:26:06.806Z,10.07
2023-02-22T12:27:06.857Z,9.93
2023-02-22T12:28:24.346Z,9.83
2023-02-22T12:29:08.538Z,10.73
2023-02-22T12:30:07.148Z,9.90
2023-02-22T12:31:15.738Z,11.07
2023-02-22T12:32:07.000Z,9.20
2023-02-22T12:33:09.323Z,12.93
